createdAt,value
2019-03-04T00:00:52.967Z,0
2019-03-04T00:01:52.838Z,0
2019-03-04T00:02:52.836Z,0
2019-03-04T00:03:52.802Z,0
2019-03-04T00:04:52.781Z,0
2019-03-04T00:05:52.755Z,0
2019-03-04T00:06:52.741Z,0
2019-03-04T00:07:52.727Z,0
2019-03-04T00:08:52.702Z,0
2019-03-04T00:09:52.679Z,0
2019-03-04T00:10:52.646Z,0
2019-03-04T00:11:52.648Z,0
2019-03-04T00:12:52.617Z,0
2019-03-04T00:13:52.603Z,0
2019-03-04T00:14:52.566Z,0
2019-03-04T00:15:52.568Z,0
2019-03-04T00:16:52.543Z,0
2019-03-04T00:17:52.521Z,0
2019-03-04T00:18:52.482Z,0
2019-03-04T00:19:52.469Z,0
2019-03-04T00:20:52.459Z,0
2019-03-04T00:21:52.438Z,0
2019-03-04T00:22:52.409Z,0
2019-03-04T00:23:52.383Z,0
2019-03-04T00:24:52.367Z,0
2019-03-04T00:25:54.211Z,0
2019-03-04T00:26:52.341Z,0
2019-03-04T00:27:52.307Z,0
2019-03-04T00:28:52.320Z,0
2019-03-04T00:29:52.260Z,0
2019-03-04T00:30:52.310Z,0
2019-03-04T00:31:52.245Z,0
2019-03-04T00:32:52.340Z,0
2019-03-04T00:33:52.190Z,0
2019-03-04T00:34:52.228Z,0
2019-03-04T00:35:52.174Z,0
2019-03-04T00:36:52.115Z,0
2019-03-04T00:37:51.874Z,0
2019-03-04T00:38:52.086Z,0
2019-03-04T00:39:52.070Z,0
2019-03-04T00:40:52.040Z,0
2019-03-04T00:41:52.016Z,0
2019-03-04T00:42:51.984Z,0
2019-03-04T00:43:51.985Z,0
2019-03-04T00:44:51.957Z,0
2019-03-04T00:45:51.938Z,0
2019-03-04T00:46:51.937Z,0
2019-03-04T00:47:51.957Z,0
2019-03-04T00:48:51.878Z,0
2019-03-04T00:49:51.891Z,0
2019-03-04T00:50:51.826Z,0
2019-03-04T00:51:51.814Z,0
2019-03-04T00:52:51.788Z,0
2019-03-04T00:53:51.785Z,0
2019-03-04T00:54:51.750Z,0
2019-03-04T00:55:51.728Z,0
2019-03-04T00:56:51.711Z,0
2019-03-04T00:57:51.688Z,0
2019-03-04T00:58:51.675Z,0
2019-03-04T00:59:51.642Z,0
2019-03-04T01:00:51.626Z,0
2019-03-04T01:01:51.607Z,0
2019-03-04T01:02:51.601Z,0
2019-03-04T01:03:51.607Z,0
2019-03-04T01:04:51.540Z,0
2019-03-04T01:05:51.582Z,0
2019-03-04T01:06:51.540Z,0
2019-03-04T01:07:51.529Z,0
2019-03-04T01:08:51.461Z,0
2019-03-04T01:09:51.436Z,0
2019-03-04T01:10:51.428Z,0
2019-03-04T01:11:51.412Z,0
2019-03-04T01:12:51.378Z,0
2019-03-04T01:13:51.362Z,0
2019-03-04T01:14:51.325Z,0
2019-03-04T01:15:51.334Z,0
2019-03-04T01:16:51.302Z,0
2019-03-04T01:17:51.039Z,0
2019-03-04T01:18:51.251Z,0
2019-03-04T01:19:51.249Z,0
2019-03-04T01:20:51.268Z,0
2019-03-04T01:21:51.198Z,0
2019-03-04T01:22:51.165Z,0
2019-03-04T01:23:51.578Z,0
2019-03-04T01:24:51.132Z,0
2019-03-04T01:25:50.890Z,0
2019-03-04T01:26:51.101Z,0
2019-03-04T01:27:51.064Z,0
2019-03-04T01:28:51.057Z,0
2019-03-04T01:29:51.033Z,0
2019-03-04T01:30:51.016Z,0
2019-03-04T01:31:50.979Z,0
2019-03-04T01:32:50.973Z,0
2019-03-04T01:33:50.943Z,0
2019-03-04T01:34:50.941Z,0
2019-03-04T01:35:50.911Z,0
2019-03-04T01:36:50.884Z,0
2019-03-04T01:37:50.859Z,0
2019-03-04T01:38:50.856Z,0
2019-03-04T01:39:50.828Z,0
2019-03-04T01:40:50.816Z,0
2019-03-04T01:41:50.782Z,0
2019-03-04T01:42:50.761Z,0
2019-03-04T01:43:50.751Z,0
2019-03-04T01:44:50.723Z,0
2019-03-04T01:45:50.705Z,0
2019-03-04T01:46:50.774Z,0
2019-03-04T01:47:50.671Z,0
2019-03-04T01:48:50.646Z,0
2019-03-04T01:49:50.679Z,0
2019-03-04T01:50:50.596Z,0
2019-03-04T01:51:50.588Z,0
2019-03-04T01:52:50.561Z,0
2019-03-04T01:53:50.537Z,0
2019-03-04T01:54:50.506Z,0
2019-03-04T01:55:50.502Z,0
2019-03-04T01:56:50.485Z,0
2019-03-04T01:57:50.466Z,0
2019-03-04T01:58:50.449Z,0
2019-03-04T01:59:50.408Z,0
2019-03-04T02:00:50.387Z,0
2019-03-04T02:01:50.372Z,0
2019-03-04T02:02:50.366Z,0
2019-03-04T02:03:50.333Z,0
2019-03-04T02:04:50.325Z,0
2019-03-04T02:05:50.300Z,0
2019-03-04T02:06:50.269Z,0
2019-03-04T02:07:50.260Z,0
2019-03-04T02:08:50.230Z,0
2019-03-04T02:09:50.216Z,0
2019-03-04T02:10:50.165Z,0
2019-03-04T02:11:50.175Z,0
2019-03-04T02:12:50.151Z,0
2019-03-04T02:13:51.394Z,0
2019-03-04T02:14:50.116Z,0
2019-03-04T02:15:50.074Z,0
2019-03-04T02:16:50.060Z,0
2019-03-04T02:17:50.045Z,0
2019-03-04T02:18:50.046Z,0
2019-03-04T02:19:49.994Z,0
2019-03-04T02:20:49.992Z,0
2019-03-04T02:21:49.965Z,0
2019-03-04T02:22:49.961Z,0
2019-03-04T02:23:49.908Z,0
2019-03-04T02:24:49.897Z,0
2019-03-04T02:25:49.878Z,0
2019-03-04T02:26:49.866Z,0
2019-03-04T02:27:49.845Z,0
2019-03-04T02:28:49.816Z,0
2019-03-04T02:29:49.790Z,0
2019-03-04T02:30:49.804Z,0
2019-03-04T02:31:49.782Z,0
2019-03-04T02:32:49.796Z,0
2019-03-04T02:33:49.485Z,0
2019-03-04T02:34:49.691Z,0
2019-03-04T02:35:49.693Z,0
2019-03-04T02:36:49.438Z,0
2019-03-04T02:37:49.671Z,0
2019-03-04T02:38:49.614Z,0
2019-03-04T02:39:49.592Z,0
2019-03-04T02:40:49.581Z,0
2019-03-04T02:41:49.570Z,0
2019-03-04T02:42:49.531Z,0
2019-03-04T02:43:49.507Z,0
2019-03-04T02:44:49.502Z,0
2019-03-04T02:45:49.479Z,0
2019-03-04T02:46:49.451Z,0
2019-03-04T02:47:49.458Z,0
2019-03-04T02:48:49.414Z,0
2019-03-04T02:49:49.406Z,0
2019-03-04T02:50:49.404Z,0
2019-03-04T02:51:49.114Z,0
2019-03-04T02:52:49.334Z,0
2019-03-04T02:53:49.322Z,0
2019-03-04T02:54:49.301Z,0
2019-03-04T02:55:49.263Z,0
2019-03-04T02:56:49.271Z,0
2019-03-04T02:57:49.239Z,0
2019-03-04T02:58:49.222Z,0
2019-03-04T02:59:49.175Z,0
2019-03-04T03:00:49.164Z,0
2019-03-04T03:01:49.147Z,0
2019-03-04T03:02:49.141Z,0
2019-03-04T03:03:49.133Z,0
2019-03-04T03:04:49.086Z,0
2019-03-04T03:05:49.065Z,0
2019-03-04T03:06:49.041Z,0
2019-03-04T03:07:49.048Z,0
2019-03-04T03:08:49.007Z,0
2019-03-04T03:09:48.982Z,0
2019-03-04T03:10:48.937Z,0
2019-03-04T03:11:48.948Z,0
2019-03-04T03:12:48.947Z,0
2019-03-04T03:13:48.682Z,0
2019-03-04T03:14:48.882Z,0
2019-03-04T03:15:48.865Z,0
2019-03-04T03:16:48.874Z,0
2019-03-04T03:17:48.870Z,0
2019-03-04T03:18:48.788Z,0
2019-03-04T03:19:48.781Z,0
2019-03-04T03:20:48.748Z,0
2019-03-04T03:21:48.739Z,0
2019-03-04T03:22:48.759Z,0
2019-03-04T03:23:48.681Z,0
2019-03-04T03:24:48.665Z,0
2019-03-04T03:25:48.654Z,0
2019-03-04T03:26:48.649Z,0
2019-03-04T03:27:48.759Z,0
2019-03-04T03:28:48.586Z,0
2019-03-04T03:29:48.590Z,0
2019-03-04T03:30:48.607Z,0
2019-03-04T03:31:48.564Z,0
2019-03-04T03:32:48.555Z,0
2019-03-04T03:33:48.527Z,0
2019-03-04T03:34:48.501Z,0
2019-03-04T03:35:48.564Z,0
2019-03-04T03:36:48.447Z,0
2019-03-04T03:37:48.411Z,0
2019-03-04T03:38:48.370Z,0
2019-03-04T03:39:48.385Z,0
2019-03-04T03:40:48.349Z,0
2019-03-04T03:41:48.332Z,0
2019-03-04T03:42:48.306Z,0
2019-03-04T03:43:48.283Z,0
2019-03-04T03:44:48.274Z,0
2019-03-04T03:45:48.019Z,0
2019-03-04T03:46:48.233Z,0
2019-03-04T03:47:48.202Z,0
2019-03-04T03:48:48.224Z,0
2019-03-04T03:49:48.151Z,0
2019-03-04T03:50:48.148Z,0
2019-03-04T03:51:48.128Z,0
2019-03-04T03:52:48.185Z,0
2019-03-04T03:53:48.116Z,0
2019-03-04T03:54:47.818Z,0
2019-03-04T03:55:48.039Z,0
2019-03-04T03:56:48.028Z,0
2019-03-04T03:57:48.006Z,0
2019-03-04T03:58:47.979Z,0
2019-03-04T03:59:48.006Z,0
2019-03-04T04:00:47.933Z,0
2019-03-04T04:01:47.935Z,0
2019-03-04T04:02:47.682Z,0
2019-03-04T04:03:47.867Z,0
2019-03-04T04:04:47.877Z,0
2019-03-04T04:05:47.827Z,0
2019-03-04T04:06:47.814Z,0
2019-03-04T04:07:47.825Z,0
2019-03-04T04:08:47.869Z,0
2019-03-04T04:09:47.755Z,0
2019-03-04T04:10:47.738Z,0
2019-03-04T04:11:47.697Z,0
2019-03-04T04:12:47.782Z,0
2019-03-04T04:13:47.667Z,0
2019-03-04T04:14:47.661Z,0
2019-03-04T04:15:47.616Z,0
2019-03-04T04:16:47.609Z,0
2019-03-04T04:17:47.581Z,0
2019-03-04T04:18:47.341Z,0
2019-03-04T04:19:47.557Z,0
2019-03-04T04:20:47.513Z,0
2019-03-04T04:21:47.511Z,0
2019-03-04T04:22:47.305Z,0
2019-03-04T04:23:47.468Z,0
2019-03-04T04:24:47.429Z,0
2019-03-04T04:25:47.417Z,0
2019-03-04T04:26:47.378Z,0
2019-03-04T04:27:47.389Z,0
2019-03-04T04:28:47.465Z,0
2019-03-04T04:29:47.360Z,0
2019-03-04T04:30:47.352Z,0
2019-03-04T04:31:47.310Z,0
2019-03-04T04:32:47.334Z,0
2019-03-04T04:33:47.296Z,0
2019-03-04T04:34:47.224Z,0
2019-03-04T04:35:47.217Z,0
2019-03-04T04:36:47.201Z,0
2019-03-04T04:37:46.922Z,0
2019-03-04T04:38:47.167Z,0
2019-03-04T04:39:47.112Z,0
2019-03-04T04:40:47.103Z,0
2019-03-04T04:41:47.093Z,0
2019-03-04T04:42:47.084Z,0
2019-03-04T04:43:47.095Z,0
2019-03-04T04:44:47.017Z,0
2019-03-04T04:45:46.992Z,0
2019-03-04T04:46:46.986Z,0
2019-03-04T04:47:46.958Z,0
2019-03-04T04:48:46.929Z,0
2019-03-04T04:49:46.908Z,0
2019-03-04T04:50:46.906Z,0
2019-03-04T04:51:46.882Z,0
2019-03-04T04:52:46.848Z,0
2019-03-04T04:53:46.827Z,0
2019-03-04T04:54:46.813Z,0
2019-03-04T04:55:46.799Z,0
2019-03-04T04:56:46.774Z,0
2019-03-04T04:57:46.757Z,0
2019-03-04T04:58:46.744Z,0
2019-03-04T04:59:46.715Z,0
2019-03-04T05:00:46.701Z,0
2019-03-04T05:01:46.675Z,0
2019-03-04T05:02:46.693Z,0
2019-03-04T05:03:46.632Z,0
2019-03-04T05:04:46.611Z,0
2019-03-04T05:05:46.600Z,0
2019-03-04T05:06:46.551Z,0
2019-03-04T05:07:46.542Z,0
2019-03-04T05:08:46.524Z,0
2019-03-04T05:09:46.510Z,0
2019-03-04T05:10:46.481Z,0
2019-03-04T05:11:46.453Z,0
2019-03-04T05:12:46.446Z,0
2019-03-04T05:13:46.426Z,0
2019-03-04T05:14:46.412Z,0
2019-03-04T05:15:46.375Z,0
2019-03-04T05:16:46.398Z,0
2019-03-04T05:17:47.048Z,0
2019-03-04T05:18:46.340Z,0
2019-03-04T05:19:46.301Z,0
2019-03-04T05:20:46.274Z,0
2019-03-04T05:21:46.265Z,0
2019-03-04T05:22:46.263Z,0
2019-03-04T05:23:46.220Z,0
2019-03-04T05:24:46.205Z,0
2019-03-04T05:25:46.171Z,0
2019-03-04T05:26:46.167Z,0
2019-03-04T05:27:46.141Z,0
2019-03-04T05:28:46.108Z,0
2019-03-04T05:29:48.353Z,0
2019-03-04T05:30:46.112Z,0
2019-03-04T05:31:46.047Z,0
2019-03-04T05:32:46.035Z,0
2019-03-04T05:33:46.005Z,0
2019-03-04T05:34:46.021Z,0
2019-03-04T05:35:45.958Z,0
2019-03-04T05:36:45.951Z,0
2019-03-04T05:37:45.930Z,0
2019-03-04T05:38:45.922Z,0
2019-03-04T05:39:45.889Z,0
2019-03-04T05:40:45.863Z,0
2019-03-04T05:41:45.841Z,0
2019-03-04T05:42:45.819Z,0
2019-03-04T05:43:45.816Z,0
2019-03-04T05:44:45.793Z,0
2019-03-04T05:45:45.762Z,0
2019-03-04T05:46:45.732Z,0
2019-03-04T05:47:45.736Z,0
2019-03-04T05:48:45.705Z,0
2019-03-04T05:49:45.787Z,0
2019-03-04T05:50:45.662Z,0
2019-03-04T05:51:45.645Z,0
2019-03-04T05:52:45.622Z,0
2019-03-04T05:53:45.605Z,0
2019-03-04T05:54:45.570Z,0
2019-03-04T05:55:45.559Z,0
2019-03-04T05:56:45.547Z,0
2019-03-04T05:57:45.522Z,0
2019-03-04T05:58:45.551Z,0
2019-03-04T05:59:45.474Z,0
2019-03-04T06:00:45.458Z,0
2019-03-04T06:01:45.439Z,0
2019-03-04T06:02:45.430Z,0
2019-03-04T06:03:45.387Z,0
2019-03-04T06:04:45.403Z,0
2019-03-04T06:05:45.403Z,0
2019-03-04T06:06:45.347Z,0
2019-03-04T06:07:45.310Z,0
2019-03-04T06:08:45.292Z,0
2019-03-04T06:09:45.291Z,0
2019-03-04T06:10:45.272Z,0
2019-03-04T06:11:45.238Z,0
2019-03-04T06:12:45.212Z,0
2019-03-04T06:13:45.185Z,0
2019-03-04T06:14:45.168Z,0
2019-03-04T06:15:45.159Z,0
2019-03-04T06:16:54.272Z,4
2019-03-04T06:17:45.108Z,0
2019-03-04T06:18:45.075Z,0
2019-03-04T06:19:46.475Z,0
2019-03-04T06:20:45.050Z,0
2019-03-04T06:21:45.031Z,0
2019-03-04T06:22:44.989Z,4
2019-03-04T06:23:44.990Z,4
2019-03-04T06:24:45.004Z,0
2019-03-04T06:25:44.951Z,4
2019-03-04T06:26:44.916Z,4
2019-03-04T06:27:44.916Z,4
2019-03-04T06:28:44.881Z,4
2019-03-04T06:29:44.872Z,4
2019-03-04T06:30:44.840Z,4
2019-03-04T06:31:44.835Z,4
2019-03-04T06:32:44.831Z,4
2019-03-04T06:33:44.779Z,4
2019-03-04T06:34:44.770Z,4
2019-03-04T06:35:44.737Z,4
2019-03-04T06:36:44.718Z,4
2019-03-04T06:37:44.707Z,4
2019-03-04T06:38:44.686Z,8
2019-03-04T06:39:44.649Z,4
2019-03-04T06:40:44.393Z,4
2019-03-04T06:41:44.616Z,8
2019-03-04T06:42:44.604Z,4
2019-03-04T06:43:46.534Z,4
2019-03-04T06:44:44.548Z,4
2019-03-04T06:45:44.524Z,4
2019-03-04T06:46:44.276Z,4
2019-03-04T06:47:44.497Z,8
2019-03-04T06:48:44.472Z,8
2019-03-04T06:49:44.448Z,16
2019-03-04T06:50:44.416Z,16
2019-03-04T06:51:44.417Z,20
2019-03-04T06:52:44.387Z,28
2019-03-04T06:53:44.380Z,28
2019-03-04T06:54:44.433Z,28
2019-03-04T06:55:44.353Z,24
2019-03-04T06:56:44.310Z,28
2019-03-04T06:57:44.286Z,32
2019-03-04T06:58:44.245Z,36
2019-03-04T06:59:44.239Z,32
2019-03-04T07:00:44.227Z,28
2019-03-04T07:01:44.207Z,28
2019-03-04T07:02:44.185Z,24
2019-03-04T07:03:44.241Z,32
2019-03-04T07:04:44.140Z,28
2019-03-04T07:05:44.124Z,32
2019-03-04T07:06:44.124Z,36
2019-03-04T07:07:44.073Z,36
2019-03-04T07:08:44.055Z,36
2019-03-04T07:09:44.027Z,48
2019-03-04T07:10:44.041Z,56
2019-03-04T07:11:43.990Z,88
2019-03-04T07:12:43.976Z,172
2019-03-04T07:13:43.710Z,180
2019-03-04T07:14:43.943Z,92
2019-03-04T07:15:43.909Z,56
2019-03-04T07:16:43.892Z,76
2019-03-04T07:17:43.867Z,80
2019-03-04T07:18:43.850Z,72
2019-03-04T07:19:43.848Z,52
2019-03-04T07:20:43.811Z,88
2019-03-04T07:21:43.815Z,100
2019-03-04T07:22:43.757Z,100
2019-03-04T07:23:43.756Z,96
2019-03-04T07:24:43.733Z,80
2019-03-04T07:25:43.711Z,64
2019-03-04T07:26:43.679Z,72
2019-03-04T07:27:44.377Z,76
2019-03-04T07:28:43.652Z,88
2019-03-04T07:29:43.627Z,156
2019-03-04T07:30:43.590Z,332
2019-03-04T07:31:43.577Z,324
2019-03-04T07:32:43.561Z,220
2019-03-04T07:33:43.545Z,208
2019-03-04T07:34:43.528Z,204
2019-03-04T07:35:43.491Z,192
2019-03-04T07:36:43.482Z,192
2019-03-04T07:37:43.472Z,168
2019-03-04T07:38:43.451Z,136
2019-03-04T07:39:43.404Z,124
2019-03-04T07:40:43.412Z,152
2019-03-04T07:41:43.377Z,180
2019-03-04T07:42:43.364Z,208
2019-03-04T07:43:43.324Z,224
2019-03-04T07:44:43.304Z,228
2019-03-04T07:45:43.287Z,224
2019-03-04T07:46:43.284Z,212
2019-03-04T07:47:43.251Z,196
2019-03-04T07:48:43.237Z,188
2019-03-04T07:49:43.198Z,208
2019-03-04T07:50:43.231Z,244
2019-03-04T07:51:43.172Z,312
2019-03-04T07:52:43.157Z,380
2019-03-04T07:53:53.082Z,468
2019-03-04T07:54:43.090Z,500
2019-03-04T07:55:43.090Z,448
2019-03-04T07:56:42.909Z,336
2019-03-04T07:57:43.062Z,232
2019-03-04T07:58:43.024Z,220
2019-03-04T07:59:43.108Z,228
2019-03-04T08:00:42.982Z,284
2019-03-04T08:01:42.996Z,288
2019-03-04T08:02:43.275Z,200
2019-03-04T08:03:42.916Z,156
2019-03-04T08:04:42.894Z,148
2019-03-04T08:05:42.989Z,128
2019-03-04T08:06:42.862Z,108
2019-03-04T08:07:42.837Z,128
2019-03-04T08:08:42.853Z,140
2019-03-04T08:09:42.797Z,136
2019-03-04T08:10:42.786Z,172
2019-03-04T08:11:42.741Z,128
2019-03-04T08:12:42.731Z,128
2019-03-04T08:13:42.485Z,156
2019-03-04T08:14:42.702Z,148
2019-03-04T08:15:42.842Z,160
2019-03-04T08:16:43.490Z,200
2019-03-04T08:17:42.639Z,116
2019-03-04T08:18:42.619Z,104
2019-03-04T08:19:42.619Z,104
2019-03-04T08:20:42.397Z,124
2019-03-04T08:21:42.485Z,164
2019-03-04T08:22:42.380Z,144
2019-03-04T08:23:42.615Z,128
2019-03-04T08:24:42.344Z,148
2019-03-04T08:25:42.563Z,276
2019-03-04T08:26:42.431Z,240
2019-03-04T08:27:42.436Z,316
2019-03-04T08:28:42.395Z,240
2019-03-04T08:29:42.440Z,212
2019-03-04T08:30:42.351Z,240
2019-03-04T08:31:42.347Z,172
2019-03-04T08:32:42.317Z,216
2019-03-04T08:33:42.304Z,208
2019-03-04T08:34:42.264Z,216
2019-03-04T08:35:42.305Z,372
2019-03-04T08:36:42.284Z,564
2019-03-04T08:37:42.214Z,564
2019-03-04T08:38:42.201Z,444
2019-03-04T08:39:42.166Z,452
2019-03-04T08:40:42.157Z,496
2019-03-04T08:41:42.129Z,460
2019-03-04T08:42:42.126Z,480
2019-03-04T08:43:42.090Z,448
2019-03-04T08:44:42.067Z,356
2019-03-04T08:45:42.046Z,496
2019-03-04T08:46:42.073Z,692
2019-03-04T08:47:42.000Z,672
2019-03-04T08:48:41.993Z,520
2019-03-04T08:49:41.973Z,556
2019-03-04T08:50:41.960Z,716
2019-03-04T08:51:41.682Z,468
2019-03-04T08:52:41.896Z,732
2019-03-04T08:53:41.894Z,480
2019-03-04T08:54:41.885Z,532
2019-03-04T08:55:41.846Z,708
2019-03-04T08:56:41.823Z,616
2019-03-04T08:57:41.802Z,604
2019-03-04T08:58:41.843Z,748
2019-03-04T08:59:41.755Z,664
2019-03-04T09:00:41.742Z,308
2019-03-04T09:01:41.710Z,804
2019-03-04T09:02:41.710Z,768
2019-03-04T09:03:41.673Z,524
2019-03-04T09:04:41.675Z,452
2019-03-04T09:05:41.624Z,584
2019-03-04T09:06:41.629Z,576
2019-03-04T09:07:41.610Z,696
2019-03-04T09:08:41.567Z,552
2019-03-04T09:09:41.337Z,460
2019-03-04T09:10:41.544Z,604
2019-03-04T09:11:41.514Z,584
2019-03-04T09:12:43.133Z,524
2019-03-04T09:13:41.467Z,764
2019-03-04T09:14:41.440Z,452
2019-03-04T09:15:41.435Z,476
2019-03-04T09:16:41.515Z,512
2019-03-04T09:17:41.387Z,544
2019-03-04T09:18:41.355Z,416
2019-03-04T09:19:41.353Z,668
2019-03-04T09:20:41.172Z,776
2019-03-04T09:21:41.307Z,620
2019-03-04T09:22:41.283Z,680
2019-03-04T09:23:41.021Z,440
2019-03-04T09:24:41.241Z,356
2019-03-04T09:25:41.224Z,304
2019-03-04T09:26:41.199Z,240
2019-03-04T09:27:41.181Z,228
2019-03-04T09:28:41.161Z,212
2019-03-04T09:29:41.135Z,192
2019-03-04T09:30:41.150Z,248
2019-03-04T09:31:41.088Z,276
2019-03-04T09:32:41.076Z,376
2019-03-04T09:33:41.053Z,348
2019-03-04T09:34:41.046Z,248
2019-03-04T09:35:41.010Z,232
2019-03-04T09:36:40.991Z,192
2019-03-04T09:37:40.972Z,196
2019-03-04T09:38:40.962Z,224
2019-03-04T09:39:40.932Z,156
2019-03-04T09:40:40.911Z,180
2019-03-04T09:41:40.881Z,196
2019-03-04T09:42:40.764Z,204
2019-03-04T09:43:40.855Z,216
2019-03-04T09:44:40.585Z,212
2019-03-04T09:45:46.141Z,192
2019-03-04T09:46:40.781Z,220
2019-03-04T09:47:40.771Z,252
2019-03-04T09:48:40.742Z,236
2019-03-04T09:49:40.750Z,280
2019-03-04T09:50:40.709Z,284
2019-03-04T09:51:40.691Z,328
2019-03-04T09:52:40.673Z,376
2019-03-04T09:53:47.899Z,408
2019-03-04T09:54:40.610Z,384
2019-03-04T09:55:40.601Z,500
2019-03-04T09:56:40.586Z,592
2019-03-04T09:57:40.568Z,732
2019-03-04T09:58:40.539Z,716
2019-03-04T09:59:40.505Z,748
2019-03-04T10:00:40.504Z,792
2019-03-04T10:01:40.477Z,744
2019-03-04T10:02:40.471Z,624
2019-03-04T10:03:40.433Z,652
2019-03-04T10:04:40.414Z,648
2019-03-04T10:05:40.152Z,756
2019-03-04T10:06:40.418Z,508
2019-03-04T10:07:40.507Z,360
2019-03-04T10:08:40.336Z,332
2019-03-04T10:09:40.347Z,300
2019-03-04T10:10:40.522Z,380
2019-03-04T10:11:40.276Z,348
2019-03-04T10:12:40.314Z,264
2019-03-04T10:13:40.244Z,276
2019-03-04T10:14:40.207Z,240
2019-03-04T10:15:40.202Z,252
2019-03-04T10:16:40.276Z,224
2019-03-04T10:17:40.146Z,272
2019-03-04T10:18:40.114Z,216
2019-03-04T10:19:40.114Z,248
2019-03-04T10:20:40.088Z,268
2019-03-04T10:21:40.077Z,304
2019-03-04T10:22:40.042Z,284
2019-03-04T10:23:40.028Z,240
2019-03-04T10:24:40.001Z,228
2019-03-04T10:25:39.984Z,172
2019-03-04T10:26:39.950Z,200
2019-03-04T10:27:39.940Z,200
2019-03-04T10:28:39.924Z,180
2019-03-04T10:29:39.912Z,180
2019-03-04T10:30:39.876Z,180
2019-03-04T10:31:39.623Z,188
2019-03-04T10:32:39.835Z,188
2019-03-04T10:33:39.841Z,196
2019-03-04T10:34:39.810Z,220
2019-03-04T10:35:39.767Z,236
2019-03-04T10:36:39.818Z,260
2019-03-04T10:37:39.721Z,276
2019-03-04T10:38:39.791Z,256
2019-03-04T10:39:39.687Z,268
2019-03-04T10:40:39.669Z,296
2019-03-04T10:41:39.645Z,360
2019-03-04T10:42:39.639Z,384
2019-03-04T10:43:39.616Z,432
2019-03-04T10:44:44.720Z,456
2019-03-04T10:45:39.565Z,436
2019-03-04T10:46:39.552Z,412
2019-03-04T10:47:39.534Z,416
2019-03-04T10:48:39.765Z,276
2019-03-04T10:49:39.605Z,300
2019-03-04T10:50:39.554Z,264
2019-03-04T10:51:39.460Z,356
2019-03-04T10:52:39.253Z,512
2019-03-04T10:53:39.415Z,608
2019-03-04T10:54:39.369Z,804
2019-03-04T10:55:49.046Z,936
2019-03-04T10:56:41.613Z,696
2019-03-04T10:57:39.375Z,864
2019-03-04T10:58:39.295Z,896
2019-03-04T10:59:39.299Z,496
2019-03-04T11:00:39.279Z,348
2019-03-04T11:01:39.252Z,412
2019-03-04T11:02:39.224Z,216
2019-03-04T11:03:39.219Z,156
2019-03-04T11:04:39.179Z,100
2019-03-04T11:05:39.162Z,96
2019-03-04T11:06:39.146Z,92
2019-03-04T11:07:39.109Z,88
2019-03-04T11:08:39.108Z,104
2019-03-04T11:09:39.071Z,72
2019-03-04T11:10:39.124Z,120
2019-03-04T11:11:39.023Z,116
2019-03-04T11:12:39.018Z,112
2019-03-04T11:13:38.750Z,116
2019-03-04T11:14:38.987Z,104
2019-03-04T11:15:38.944Z,124
2019-03-04T11:16:38.923Z,104
2019-03-04T11:17:38.911Z,144
2019-03-04T11:18:38.642Z,144
2019-03-04T11:19:38.877Z,132
2019-03-04T11:20:38.844Z,120
2019-03-04T11:21:38.830Z,108
2019-03-04T11:22:38.796Z,96
2019-03-04T11:23:38.795Z,92
2019-03-04T11:24:38.766Z,84
2019-03-04T11:25:38.746Z,80
2019-03-04T11:26:38.726Z,72
2019-03-04T11:27:38.708Z,60
2019-03-04T11:28:38.741Z,44
2019-03-04T11:29:38.680Z,40
2019-03-04T11:30:38.633Z,40
2019-03-04T11:31:38.625Z,40
2019-03-04T11:32:38.616Z,48
2019-03-04T11:33:38.592Z,52
2019-03-04T11:34:38.557Z,68
2019-03-04T11:35:38.604Z,84
2019-03-04T11:36:38.517Z,112
2019-03-04T11:37:38.498Z,180
2019-03-04T11:38:38.488Z,140
2019-03-04T11:39:38.442Z,228
2019-03-04T11:40:38.446Z,180
2019-03-04T11:41:38.407Z,196
2019-03-04T11:42:38.406Z,236
2019-03-04T11:43:38.373Z,272
2019-03-04T11:44:38.351Z,200
2019-03-04T11:45:38.087Z,180
2019-03-04T11:46:38.331Z,216
2019-03-04T11:47:38.288Z,152
2019-03-04T11:48:38.274Z,120
2019-03-04T11:49:38.244Z,136
2019-03-04T11:50:38.227Z,96
2019-03-04T11:51:38.227Z,80
2019-03-04T11:52:38.182Z,84
2019-03-04T11:53:37.926Z,140
2019-03-04T11:54:38.133Z,168
2019-03-04T11:55:38.128Z,208
2019-03-04T11:56:38.101Z,336
2019-03-04T11:57:38.086Z,568
2019-03-04T11:58:38.091Z,476
2019-03-04T11:59:38.051Z,628
2019-03-04T12:00:37.780Z,516
2019-03-04T12:01:38.006Z,492
2019-03-04T12:02:46.028Z,708
2019-03-04T12:03:37.963Z,612
2019-03-04T12:04:37.950Z,548
2019-03-04T12:05:37.928Z,524
2019-03-04T12:06:37.894Z,548
2019-03-04T12:07:37.874Z,600
2019-03-04T12:08:37.856Z,664
2019-03-04T12:09:37.836Z,732
2019-03-04T12:10:37.836Z,608
2019-03-04T12:11:45.303Z,608
2019-03-04T12:12:37.797Z,684
2019-03-04T12:13:37.750Z,740
2019-03-04T12:14:37.752Z,692
2019-03-04T12:15:37.708Z,700
2019-03-04T12:16:37.690Z,724
2019-03-04T12:17:37.425Z,724
2019-03-04T12:18:37.634Z,772
2019-03-04T12:19:37.628Z,784
2019-03-04T12:20:38.159Z,668
2019-03-04T12:21:37.600Z,640
2019-03-04T12:22:37.615Z,732
2019-03-04T12:23:37.547Z,864
2019-03-04T12:24:37.519Z,852
2019-03-04T12:25:37.507Z,788
2019-03-04T12:26:37.501Z,820
2019-03-04T12:27:37.465Z,676
2019-03-04T12:28:37.448Z,644
2019-03-04T12:29:37.415Z,568
2019-03-04T12:30:37.417Z,564
2019-03-04T12:31:37.375Z,600
2019-03-04T12:32:37.359Z,744
2019-03-04T12:33:37.334Z,556
2019-03-04T12:34:37.453Z,624
2019-03-04T12:35:37.298Z,444
2019-03-04T12:36:37.304Z,388
2019-03-04T12:37:37.276Z,376
2019-03-04T12:38:36.995Z,400
2019-03-04T12:39:37.223Z,392
2019-03-04T12:40:37.191Z,448
2019-03-04T12:41:37.169Z,392
2019-03-04T12:42:37.158Z,316
2019-03-04T12:43:37.144Z,616
2019-03-04T12:44:37.109Z,712
2019-03-04T12:45:41.659Z,596
2019-03-04T12:46:37.046Z,480
2019-03-04T12:47:37.072Z,396
2019-03-04T12:48:36.809Z,360
2019-03-04T12:49:37.024Z,336
2019-03-04T12:50:36.986Z,424
2019-03-04T12:51:36.961Z,440
2019-03-04T12:52:36.943Z,464
2019-03-04T12:53:44.366Z,456
2019-03-04T12:54:36.906Z,516
2019-03-04T12:55:36.872Z,416
2019-03-04T12:56:36.861Z,344
2019-03-04T12:57:36.861Z,332
2019-03-04T12:58:36.836Z,280
2019-03-04T12:59:36.787Z,260
2019-03-04T13:00:36.774Z,272
2019-03-04T13:01:36.764Z,244
2019-03-04T13:02:36.746Z,272
2019-03-04T13:03:36.704Z,428
2019-03-04T13:04:36.694Z,360
2019-03-04T13:05:36.704Z,340
2019-03-04T13:06:36.667Z,320
2019-03-04T13:07:36.631Z,228
2019-03-04T13:08:36.613Z,260
2019-03-04T13:09:36.614Z,236
2019-03-04T13:10:38.806Z,356
2019-03-04T13:11:36.552Z,272
2019-03-04T13:12:36.532Z,240
2019-03-04T13:13:36.506Z,352
2019-03-04T13:14:36.470Z,344
2019-03-04T13:15:36.477Z,300
2019-03-04T13:16:36.449Z,336
2019-03-04T13:17:36.439Z,336
2019-03-04T13:18:36.387Z,344
2019-03-04T13:19:36.397Z,264
2019-03-04T13:20:36.364Z,224
2019-03-04T13:21:36.410Z,296
2019-03-04T13:22:36.309Z,352
2019-03-04T13:23:36.329Z,368
2019-03-04T13:24:36.277Z,244
2019-03-04T13:25:36.260Z,292
2019-03-04T13:26:36.237Z,428
2019-03-04T13:27:36.215Z,468
2019-03-04T13:28:36.194Z,420
2019-03-04T13:29:36.177Z,372
2019-03-04T13:30:36.166Z,308
2019-03-04T13:31:36.125Z,320
2019-03-04T13:32:36.113Z,468
2019-03-04T13:33:36.081Z,580
2019-03-04T13:34:36.086Z,428
2019-03-04T13:35:36.050Z,376
2019-03-04T13:36:36.030Z,248
2019-03-04T13:37:37.910Z,280
2019-03-04T13:38:36.007Z,276
2019-03-04T13:39:35.971Z,432
2019-03-04T13:40:35.951Z,436
2019-03-04T13:41:35.921Z,384
2019-03-04T13:42:35.919Z,432
2019-03-04T13:43:35.893Z,424
2019-03-04T13:44:35.866Z,424
2019-03-04T13:45:35.847Z,436
2019-03-04T13:46:35.804Z,472
2019-03-04T13:47:35.857Z,408
2019-03-04T13:48:35.779Z,324
2019-03-04T13:49:35.768Z,376
2019-03-04T13:50:36.210Z,368
2019-03-04T13:51:35.733Z,356
2019-03-04T13:52:35.704Z,384
2019-03-04T13:53:35.686Z,392
2019-03-04T13:54:35.641Z,448
2019-03-04T13:55:35.656Z,480
2019-03-04T13:56:35.645Z,364
2019-03-04T13:57:35.597Z,340
2019-03-04T13:58:35.582Z,372
2019-03-04T13:59:35.544Z,360
2019-03-04T14:00:35.531Z,348
2019-03-04T14:01:35.511Z,360
2019-03-04T14:02:35.498Z,380
2019-03-04T14:03:35.456Z,328
2019-03-04T14:04:35.449Z,356
2019-03-04T14:05:35.420Z,392
2019-03-04T14:06:35.420Z,480
2019-03-04T14:07:35.388Z,408
2019-03-04T14:08:35.368Z,536
2019-03-04T14:09:35.336Z,352
2019-03-04T14:10:35.349Z,344
2019-03-04T14:11:35.300Z,320
2019-03-04T14:12:35.281Z,344
2019-03-04T14:13:35.265Z,336
2019-03-04T14:14:35.236Z,312
2019-03-04T14:15:35.227Z,304
2019-03-04T14:16:34.959Z,284